Terminal Aerodrome Forecast
Issued by NWS

Current Version | Previous Version | Text Only | Print | Product List | Glossary Off
Versions: 1 2 3 4 5 6 7 8 9 10 11 12 13 14 15 16 17

000
FTUS41 KILN 241741 AAA
TAFLCK
TAF AMD
KLCK 241741Z 2418/2518 22015G23KT P6SM SCT040
     FM242300 21010KT P6SM BKN080
     FM250400 17005KT P6SM BKN200
     FM251500 19008KT P6SM SCT040 BKN150=

USA.gov is the U.S. government's official web portal to all federal, state and local government web resources and services.